Search for airport 
image banner adimage banner adimage banner ad
image banner ad

CA73 - Vanderford Ranch Company

Located in Yuba City, United States

ICAO - CA73, IATA -

Data provided by Airmate  

General information

Coordinates: N39°5'45" W121°42'59"
Elevation is 42 feet MSL.
Magnetic variation is 16° East
View others Airports in California

Operational data

Special qualification required
Current time UTC:
Current local time:
Weather at : KMYV - Yuba County ( 13 km )
METAR: KMYV 210853Z AUTO 15008KT 10SM CLR 22/09 A2978 RMK AO2 SLP086 T02220089 53006
View NOTAMs / SUP AIP / TFR affecting this airport [VIEW]
Communications frequencies: [VIEW]

Runways:

RWY identifierQFULength (ft)Width (ft)SurfaceLDA (ft)
16322048ASPH
34322048ASPH

Airport contact information

Address: Yuba City United States

Satellite view of CA73